createdAt,value
2022-10-10T00:02:29.750Z,96285.97
2022-10-10T00:05:15.613Z,96298.03
2022-10-10T00:08:01.615Z,96294.50
2022-10-10T00:10:47.726Z,96303.97
2022-10-10T00:13:34.477Z,96309.97
2022-10-10T00:16:21.121Z,96313.72
2022-10-10T00:19:07.341Z,96307.03
2022-10-10T00:21:53.073Z,96295.75
2022-10-10T00:24:38.995Z,96304.28
2022-10-10T00:27:24.774Z,96311.69
2022-10-10T00:30:11.018Z,96315.81
2022-10-10T00:32:59.418Z,96306.25
2022-10-10T00:35:45.230Z,96311.81
2022-10-10T00:38:32.636Z,96313.03
2022-10-10T00:41:18.752Z,96316.94
2022-10-10T00:44:13.525Z,96313.72
2022-10-10T00:46:59.867Z,96313.31
2022-10-10T00:49:45.762Z,96304.50
2022-10-10T00:52:31.761Z,96303.88
2022-10-10T00:55:18.004Z,96305.34
2022-10-10T00:58:05.919Z,96304.25
2022-10-10T01:00:52.479Z,96291.75
2022-10-10T01:03:38.444Z,96281.56
2022-10-10T01:06:24.508Z,96296.75
2022-10-10T01:09:10.557Z,96302.66
2022-10-10T01:12:04.475Z,96271.47
2022-10-10T01:15:18.633Z,96294.47
2022-10-10T01:18:25.915Z,96289.63
2022-10-10T01:21:30.709Z,96293.16
2022-10-10T01:24:29.485Z,96282.56
2022-10-10T01:27:38.948Z,96292.78
2022-10-10T01:30:25.380Z,96284.06
2022-10-10T01:33:16.922Z,96289.44
2022-10-10T01:36:15.089Z,96287.13
2022-10-10T01:39:17.629Z,96288.03
2022-10-10T01:42:12.145Z,96293.03
2022-10-10T01:44:58.429Z,96283.03
2022-10-10T01:47:44.432Z,96290.88
2022-10-10T01:50:34.619Z,96294.59
2022-10-10T01:53:47.038Z,96294.88
2022-10-10T01:56:59.453Z,96296.72
2022-10-10T02:00:07.558Z,96302.63
2022-10-10T02:03:05.835Z,96298.56
2022-10-10T02:06:03.103Z,96282.53
2022-10-10T02:08:55.996Z,96289.22
2022-10-10T02:11:42.312Z,96270.00
2022-10-10T02:14:32.950Z,96290.94
2022-10-10T02:17:19.813Z,96281.91
2022-10-10T02:20:06.909Z,96267.88
2022-10-10T02:22:54.510Z,96285.28
2022-10-10T02:25:41.624Z,96272.59
2022-10-10T02:28:39.910Z,96284.16
2022-10-10T02:31:51.025Z,96285.56
2022-10-10T02:34:40.450Z,96283.34
2022-10-10T02:37:26.388Z,96292.78
2022-10-10T02:40:15.125Z,96285.53
2022-10-10T02:43:03.515Z,96288.88
2022-10-10T02:45:49.721Z,96287.91
2022-10-10T02:48:35.989Z,96286.31
2022-10-10T02:51:22.382Z,96294.34
2022-10-10T02:54:08.920Z,96293.19
2022-10-10T02:56:55.168Z,96283.81
2022-10-10T02:59:41.145Z,96277.47
2022-10-10T03:02:27.767Z,96304.75
2022-10-10T03:05:13.975Z,96296.41
2022-10-10T03:08:00.086Z,96307.25
2022-10-10T03:11:00.750Z,96303.06
2022-10-10T03:13:46.522Z,96305.38
2022-10-10T03:16:32.533Z,96312.06
2022-10-10T03:19:18.666Z,96307.72
2022-10-10T03:22:04.885Z,96295.78
2022-10-10T03:24:50.815Z,96301.81
2022-10-10T03:27:36.988Z,96300.78
2022-10-10T03:30:22.898Z,96308.66
2022-10-10T03:33:09.742Z,96298.75
2022-10-10T03:35:55.615Z,96301.28
2022-10-10T03:38:41.725Z,96293.84
2022-10-10T03:41:27.829Z,96298.41
2022-10-10T03:44:13.672Z,96291.00
2022-10-10T03:46:59.569Z,96290.81
2022-10-10T03:49:45.520Z,96291.00
2022-10-10T03:52:31.469Z,96285.44
2022-10-10T03:55:17.637Z,96275.44
2022-10-10T03:58:04.041Z,96289.16
2022-10-10T04:00:57.561Z,96282.09
2022-10-10T04:03:44.487Z,96288.13
2022-10-10T04:06:32.553Z,96276.19
2022-10-10T04:09:18.519Z,96259.78
2022-10-10T04:12:04.518Z,96259.63
2022-10-10T04:14:50.940Z,96262.97
2022-10-10T04:17:37.043Z,96276.84
2022-10-10T04:20:23.155Z,96276.03
2022-10-10T04:23:09.288Z,96285.94
2022-10-10T04:25:55.065Z,96266.38
2022-10-10T04:28:41.255Z,96262.03
2022-10-10T04:31:27.332Z,96279.69
2022-10-10T04:34:13.067Z,96279.34
2022-10-10T04:36:59.022Z,96269.63
2022-10-10T04:39:44.885Z,96276.94
2022-10-10T04:42:30.719Z,96272.78
2022-10-10T04:45:16.729Z,96279.28
2022-10-10T04:48:02.826Z,96279.91
2022-10-10T04:50:57.284Z,96280.59
2022-10-10T04:53:48.107Z,96286.03
2022-10-10T04:56:35.952Z,96273.66
2022-10-10T04:59:22.181Z,96265.66
2022-10-10T05:02:07.990Z,96278.91
2022-10-10T05:04:53.974Z,96268.06
2022-10-10T05:07:40.052Z,96274.19
2022-10-10T05:10:25.989Z,96287.25
2022-10-10T05:13:13.734Z,96276.13
2022-10-10T05:16:00.848Z,96281.50
2022-10-10T05:18:46.602Z,96283.66
2022-10-10T05:21:32.680Z,96285.78
2022-10-10T05:24:18.864Z,96290.78
2022-10-10T05:27:04.657Z,96288.59
2022-10-10T05:29:50.682Z,96283.03
2022-10-10T05:32:36.907Z,96274.28
2022-10-10T05:35:22.991Z,96293.53
2022-10-10T05:38:09.148Z,96292.31
2022-10-10T05:40:55.352Z,96292.59
2022-10-10T05:43:41.505Z,96286.75
2022-10-10T05:46:27.603Z,96291.84
2022-10-10T05:49:13.588Z,96289.63
2022-10-10T05:51:59.539Z,96292.31
2022-10-10T05:54:46.145Z,96294.47
2022-10-10T05:57:31.836Z,96301.09
2022-10-10T06:00:17.901Z,96307.16
2022-10-10T06:03:04.895Z,96296.75
2022-10-10T06:05:52.100Z,96299.53
2022-10-10T06:08:37.974Z,96301.47
2022-10-10T06:11:25.122Z,96317.81
2022-10-10T06:14:11.039Z,96314.84
2022-10-10T06:16:57.239Z,96315.66
2022-10-10T06:19:43.185Z,96317.94
2022-10-10T06:22:29.559Z,96309.88
2022-10-10T06:25:38.528Z,96318.31
2022-10-10T06:28:23.033Z,96308.66
2022-10-10T06:31:10.592Z,96315.53
2022-10-10T06:33:56.448Z,96314.78
2022-10-10T06:36:42.449Z,96313.38
2022-10-10T06:39:28.136Z,96302.78
2022-10-10T06:42:14.158Z,96319.09
2022-10-10T06:45:00.084Z,96324.34
2022-10-10T06:47:45.877Z,96313.41
2022-10-10T06:50:31.665Z,96313.41
2022-10-10T06:53:17.529Z,96328.59
2022-10-10T06:56:04.088Z,96327.56
2022-10-10T06:58:50.652Z,96330.72
2022-10-10T07:01:36.467Z,96327.47
2022-10-10T07:04:22.486Z,96335.13
2022-10-10T07:07:08.338Z,96331.06
2022-10-10T07:09:54.169Z,96309.25
2022-10-10T07:12:44.495Z,96332.41
2022-10-10T07:15:31.143Z,96310.81
2022-10-10T07:18:20.460Z,96318.38
2022-10-10T07:21:06.706Z,96308.47
2022-10-10T07:23:52.509Z,96329.28
2022-10-10T07:26:39.337Z,96323.50
2022-10-10T07:29:25.251Z,96320.44
2022-10-10T07:32:11.478Z,96333.75
2022-10-10T07:34:58.965Z,96334.66
2022-10-10T07:37:45.273Z,96317.84
2022-10-10T07:40:31.484Z,96330.34
2022-10-10T07:43:18.417Z,96327.66
2022-10-10T07:46:08.257Z,96334.75
2022-10-10T07:48:57.229Z,96330.44
2022-10-10T07:51:43.253Z,96304.91
2022-10-10T07:54:30.006Z,96328.03
2022-10-10T07:57:15.885Z,96326.00
2022-10-10T08:00:09.888Z,96320.19
2022-10-10T08:02:59.049Z,96326.03
2022-10-10T08:05:47.004Z,96325.44
2022-10-10T08:08:34.377Z,96318.81
2022-10-10T08:11:21.986Z,96332.31
2022-10-10T08:14:08.067Z,96338.56
2022-10-10T08:16:53.769Z,96322.38
2022-10-10T08:19:39.654Z,96326.72
2022-10-10T08:22:25.533Z,96330.50
2022-10-10T08:25:11.723Z,96318.88
2022-10-10T08:27:57.615Z,96332.84
2022-10-10T08:30:43.658Z,96321.25
2022-10-10T08:33:29.592Z,96333.72
2022-10-10T08:36:20.706Z,96328.34
2022-10-10T08:39:07.128Z,96328.78
2022-10-10T08:41:56.060Z,96331.06
2022-10-10T08:44:45.193Z,96320.94
2022-10-10T08:47:50.182Z,96318.00
2022-10-10T08:50:40.592Z,96316.56
2022-10-10T08:53:43.058Z,96304.28
2022-10-10T08:56:33.756Z,96318.38
2022-10-10T08:59:27.912Z,96319.06
2022-10-10T09:02:29.580Z,96315.38
2022-10-10T09:05:51.034Z,96303.63
2022-10-10T09:08:57.575Z,96301.06
2022-10-10T09:12:03.949Z,96294.03
2022-10-10T09:15:20.282Z,96283.22
2022-10-10T09:18:30.889Z,96291.31
2022-10-10T09:21:20.738Z,96272.00
2022-10-10T09:24:19.702Z,96291.94
2022-10-10T09:27:07.400Z,96292.16
2022-10-10T09:30:16.548Z,96291.56
2022-10-10T09:33:12.292Z,96286.97
2022-10-10T09:35:59.472Z,96295.94
2022-10-10T09:38:53.132Z,96304.25
2022-10-10T09:42:10.593Z,96294.69
2022-10-10T09:44:56.637Z,96291.19
2022-10-10T09:47:42.519Z,96293.91
2022-10-10T09:50:28.670Z,96289.75
2022-10-10T09:53:16.362Z,96287.69
2022-10-10T09:56:05.338Z,96286.25
2022-10-10T09:58:53.371Z,96281.91
2022-10-10T10:01:39.295Z,96275.44
2022-10-10T10:04:32.155Z,96256.75
2022-10-10T10:07:18.541Z,96270.91
2022-10-10T10:10:24.523Z,96268.88
2022-10-10T10:13:15.151Z,96264.69
2022-10-10T10:16:10.323Z,96268.44
2022-10-10T10:18:56.606Z,96281.94
2022-10-10T10:21:52.641Z,96257.16
2022-10-10T10:24:39.232Z,96258.25
2022-10-10T10:27:28.379Z,96253.81
2022-10-10T10:30:25.373Z,96266.25
2022-10-10T10:33:42.621Z,96268.91
2022-10-10T10:36:47.134Z,96270.72
2022-10-10T10:39:52.011Z,96270.28
2022-10-10T10:42:50.337Z,96263.06
2022-10-10T10:45:54.976Z,96264.06
2022-10-10T10:48:52.634Z,96269.47
2022-10-10T10:52:03.936Z,96260.88
2022-10-10T10:55:08.470Z,96246.25
2022-10-10T11:02:03.182Z,96252.00
2022-10-10T11:05:25.201Z,96241.34
2022-10-10T11:08:08.220Z,96240.88
2022-10-10T11:11:29.658Z,96224.44
2022-10-10T11:14:31.159Z,96216.41
2022-10-10T11:17:40.269Z,96213.78
2022-10-10T11:20:31.689Z,96211.97
2022-10-10T11:23:20.726Z,96204.78
2022-10-10T11:26:20.841Z,96192.31
2022-10-10T11:29:35.462Z,96200.94
2022-10-10T11:32:30.811Z,96183.66
2022-10-10T11:35:59.250Z,96173.25
2022-10-10T11:38:51.042Z,96175.47
2022-10-10T11:42:00.208Z,96174.88
2022-10-10T11:44:56.109Z,96157.56
2022-10-10T11:47:50.976Z,96158.22
2022-10-10T11:50:40.772Z,96170.25
2022-10-10T11:53:41.834Z,96168.34
2022-10-10T11:56:35.692Z,96156.81
2022-10-10T11:59:26.080Z,96167.59
2022-10-10T12:02:25.709Z,96141.66
2022-10-10T12:05:25.513Z,96159.53
2022-10-10T12:08:19.526Z,96160.97
2022-10-10T12:11:16.071Z,96146.44
2022-10-10T12:14:02.845Z,96156.75
2022-10-10T12:16:49.241Z,96162.50
2022-10-10T12:19:35.587Z,96163.44
2022-10-10T12:22:29.081Z,96166.41
2022-10-10T12:25:25.833Z,96157.38
2022-10-10T12:28:14.919Z,96132.00
2022-10-10T12:31:06.884Z,96146.00
2022-10-10T12:34:04.706Z,96132.63
2022-10-10T12:36:58.301Z,96147.75
2022-10-10T12:40:07.099Z,96130.91
2022-10-10T12:42:56.162Z,96131.53
2022-10-10T12:45:57.615Z,96101.88
2022-10-10T12:48:44.299Z,96138.66
2022-10-10T12:51:32.054Z,96130.00
2022-10-10T12:54:24.651Z,96127.28
2022-10-10T12:57:33.676Z,96134.63
2022-10-10T13:00:20.955Z,96110.09
2022-10-10T13:03:18.814Z,96119.44
2022-10-10T13:06:11.260Z,96127.75
2022-10-10T13:08:57.883Z,96125.00
2022-10-10T13:11:59.044Z,96122.53
2022-10-10T13:14:45.914Z,96113.31
2022-10-10T13:17:37.587Z,96123.47
2022-10-10T13:20:36.071Z,96121.94
2022-10-10T13:23:22.077Z,96118.63
2022-10-10T13:26:23.859Z,96120.50
2022-10-10T13:29:36.477Z,96102.53
2022-10-10T13:32:42.501Z,96118.88
2022-10-10T13:35:29.374Z,96110.44
2022-10-10T13:38:17.463Z,96114.50
2022-10-10T13:41:05.100Z,96108.88
2022-10-10T13:43:51.981Z,96108.16
2022-10-10T13:49:30.673Z,96102.63
2022-10-10T13:52:24.162Z,96094.84
2022-10-10T13:55:15.582Z,96094.00
2022-10-10T13:58:06.956Z,96080.38
2022-10-10T14:00:57.755Z,96089.31
2022-10-10T14:03:46.308Z,96095.22
2022-10-10T14:06:32.671Z,96086.38
2022-10-10T14:09:55.788Z,96084.81
2022-10-10T14:12:47.158Z,96081.19
2022-10-10T14:15:42.523Z,96084.81
2022-10-10T14:18:28.509Z,96089.00
2022-10-10T14:21:15.267Z,96093.88
2022-10-10T14:24:01.181Z,96081.50
2022-10-10T14:26:47.439Z,96078.84
2022-10-10T14:29:33.277Z,96076.78
2022-10-10T14:32:19.352Z,96080.97
2022-10-10T14:35:06.216Z,96081.72
2022-10-10T14:37:52.349Z,96089.22
2022-10-10T14:40:38.497Z,96090.06
2022-10-10T14:43:24.545Z,96074.75
2022-10-10T14:46:22.314Z,96075.03
2022-10-10T14:49:16.408Z,96084.47
2022-10-10T14:52:02.641Z,96072.91
2022-10-10T14:54:48.778Z,96083.06
2022-10-10T14:57:34.610Z,96075.28
2022-10-10T15:00:23.435Z,96085.13
2022-10-10T15:03:09.253Z,96080.19
2022-10-10T15:05:55.509Z,96074.22
2022-10-10T15:08:41.882Z,96082.97
2022-10-10T15:11:27.672Z,96073.28
2022-10-10T15:14:13.775Z,96069.94
2022-10-10T15:16:59.519Z,96069.09
2022-10-10T15:19:45.504Z,96068.59
2022-10-10T15:22:32.297Z,96069.53
2022-10-10T15:25:18.305Z,96077.50
2022-10-10T15:28:04.912Z,96062.72
2022-10-10T15:30:52.679Z,96076.88
2022-10-10T15:33:39.083Z,96070.97
2022-10-10T15:36:25.230Z,96074.19
2022-10-10T15:39:11.740Z,96085.91
2022-10-10T15:41:58.073Z,96082.97
2022-10-10T15:44:46.044Z,96081.19
2022-10-10T15:47:32.337Z,96070.16
2022-10-10T15:50:18.545Z,96065.19
2022-10-10T15:53:04.825Z,96069.56
2022-10-10T15:55:51.051Z,96080.56
2022-10-10T15:58:38.258Z,96084.91
2022-10-10T16:01:24.702Z,96071.91
2022-10-10T16:04:11.623Z,96078.53
2022-10-10T16:07:26.852Z,96083.59
2022-10-10T16:10:04.218Z,96087.16
2022-10-10T16:12:50.183Z,96090.66
2022-10-10T16:15:36.610Z,96088.16
2022-10-10T16:18:23.130Z,96073.50
2022-10-10T16:21:17.687Z,96090.88
2022-10-10T16:24:03.982Z,96089.91
2022-10-10T16:26:50.077Z,96105.38
2022-10-10T16:29:36.033Z,96097.91
2022-10-10T16:32:22.005Z,96093.63
2022-10-10T16:35:08.369Z,96090.34
2022-10-10T16:37:54.226Z,96094.91
2022-10-10T16:40:40.289Z,96090.78
2022-10-10T16:43:26.318Z,96082.50
2022-10-10T16:46:18.587Z,96088.34
2022-10-10T16:49:04.857Z,96090.94
2022-10-10T16:51:51.200Z,96097.28
2022-10-10T16:54:37.162Z,96081.69
2022-10-10T16:57:23.206Z,96093.13
2022-10-10T17:00:09.794Z,96089.00
2022-10-10T17:02:55.607Z,96083.56
2022-10-10T17:05:41.554Z,96094.63
2022-10-10T17:08:28.291Z,96094.28
2022-10-10T17:11:14.776Z,96111.97
2022-10-10T17:14:01.595Z,96098.63
2022-10-10T17:19:53.892Z,96096.72
2022-10-10T17:22:41.048Z,96093.00
2022-10-10T17:25:28.315Z,96102.81
2022-10-10T17:28:14.995Z,96112.38
2022-10-10T17:31:01.459Z,96115.50
2022-10-10T17:33:53.257Z,96108.91
2022-10-10T17:36:39.712Z,96120.59
2022-10-10T17:39:25.555Z,96111.47
2022-10-10T17:42:11.565Z,96119.13
2022-10-10T17:44:59.518Z,96122.00
2022-10-10T17:47:45.644Z,96115.75
2022-10-10T17:50:31.299Z,96120.97
2022-10-10T17:53:17.273Z,96119.53
2022-10-10T17:56:04.538Z,96125.75
2022-10-10T17:58:50.911Z,96119.97
2022-10-10T18:01:38.022Z,96131.66
2022-10-10T18:04:23.884Z,96124.41
2022-10-10T18:07:12.202Z,96126.06
2022-10-10T18:09:58.679Z,96126.28
2022-10-10T18:12:44.829Z,96119.88
2022-10-10T18:15:30.964Z,96120.94
2022-10-10T18:18:17.140Z,96114.06
2022-10-10T18:21:05.821Z,96123.66
2022-10-10T18:23:52.123Z,96127.63
2022-10-10T18:26:38.391Z,96128.91
2022-10-10T18:29:24.558Z,96126.06
2022-10-10T18:32:10.321Z,96136.66
2022-10-10T18:34:56.599Z,96115.25
2022-10-10T18:37:43.324Z,96102.19
2022-10-10T18:40:29.665Z,96127.53
2022-10-10T18:43:18.310Z,96125.66
2022-10-10T18:46:07.750Z,96131.69
2022-10-10T18:48:54.372Z,96135.69
2022-10-10T18:51:43.186Z,96127.97
2022-10-10T18:54:30.587Z,96119.00
2022-10-10T18:57:16.848Z,96121.31
2022-10-10T19:00:03.003Z,96113.81
2022-10-10T19:02:49.267Z,96114.84
2022-10-10T19:05:40.072Z,96120.09
2022-10-10T19:08:26.401Z,96122.81
2022-10-10T19:11:33.073Z,96094.41
2022-10-10T19:14:19.783Z,96103.69
2022-10-10T19:17:05.882Z,96094.34
2022-10-10T19:19:52.694Z,96102.03
2022-10-10T19:22:38.883Z,96081.25
2022-10-10T19:25:27.679Z,96074.56
2022-10-10T19:28:13.804Z,96063.34
2022-10-10T19:31:04.564Z,96085.53
2022-10-10T19:33:52.515Z,96097.03
2022-10-10T19:36:39.908Z,96099.28
2022-10-10T19:39:28.497Z,96097.91
2022-10-10T19:42:14.787Z,96087.69
2022-10-10T19:45:01.059Z,96081.44
2022-10-10T19:47:47.187Z,96093.94
2022-10-10T19:50:33.515Z,96100.84
2022-10-10T19:53:19.851Z,96106.66
2022-10-10T19:56:09.285Z,96092.72
2022-10-10T19:58:59.046Z,96100.25
2022-10-10T20:01:45.294Z,96103.16
2022-10-10T20:04:30.994Z,96090.66
2022-10-10T20:07:17.108Z,96105.03
2022-10-10T20:10:04.647Z,96102.16
2022-10-10T20:12:51.239Z,96104.47
2022-10-10T20:15:50.580Z,96109.28
2022-10-10T20:18:39.681Z,96105.53
2022-10-10T20:21:30.095Z,96105.53
2022-10-10T20:24:16.136Z,96096.06
2022-10-10T20:27:02.198Z,96103.06
2022-10-10T20:29:48.125Z,96101.41
2022-10-10T20:32:34.330Z,96097.06
2022-10-10T20:35:20.772Z,96096.00
2022-10-10T20:38:10.652Z,96093.72
2022-10-10T20:40:57.040Z,96099.78
2022-10-10T20:43:43.100Z,96086.91
2022-10-10T20:46:32.146Z,96097.50
2022-10-10T20:49:20.829Z,96085.66
2022-10-10T20:52:06.888Z,96091.72
2022-10-10T20:54:53.189Z,96100.19
2022-10-10T20:57:39.068Z,96103.34
2022-10-10T21:00:25.084Z,96106.66
2022-10-10T21:03:11.397Z,96100.25
2022-10-10T21:06:15.008Z,96098.84
2022-10-10T21:09:04.391Z,96097.19
2022-10-10T21:11:51.629Z,96099.28
2022-10-10T21:14:37.754Z,96111.34
2022-10-10T21:17:23.780Z,96104.91
2022-10-10T21:20:10.087Z,96104.53
2022-10-10T21:22:56.036Z,96110.56
2022-10-10T21:25:42.949Z,96113.63
2022-10-10T21:28:29.046Z,96108.44
2022-10-10T21:31:19.656Z,96112.22
2022-10-10T21:34:07.651Z,96106.16
2022-10-10T21:36:53.788Z,96101.81
2022-10-10T21:39:40.113Z,96088.91
2022-10-10T21:42:26.457Z,96091.19
2022-10-10T21:45:12.620Z,96090.56
2022-10-10T21:47:58.785Z,96082.66
2022-10-10T21:50:44.788Z,96098.91
2022-10-10T21:53:30.813Z,96087.25
2022-10-10T21:56:17.569Z,96100.16
2022-10-10T21:59:03.893Z,96093.06
2022-10-10T22:01:49.888Z,96100.56
2022-10-10T22:04:36.000Z,96098.06
2022-10-10T22:07:21.885Z,96101.84
2022-10-10T22:10:10.218Z,96096.41
2022-10-10T22:12:56.470Z,96093.50
2022-10-10T22:15:42.833Z,96109.72
2022-10-10T22:18:29.447Z,96091.00
2022-10-10T22:21:17.221Z,96096.41
2022-10-10T22:24:06.355Z,96091.00
2022-10-10T22:26:52.994Z,96088.13
2022-10-10T22:29:39.141Z,96088.72
2022-10-10T22:32:25.231Z,96092.88
2022-10-10T22:35:11.355Z,96072.56
2022-10-10T22:37:57.450Z,96086.25
2022-10-10T22:40:43.532Z,96072.31
2022-10-10T22:43:29.494Z,96083.94
2022-10-10T22:46:15.557Z,96084.38
2022-10-10T22:49:01.975Z,96076.69
2022-10-10T22:51:48.134Z,96067.78
2022-10-10T22:54:34.451Z,96071.91
2022-10-10T22:57:20.381Z,96071.66
2022-10-10T23:00:07.259Z,96068.56
2022-10-10T23:02:57.094Z,96067.97
2022-10-10T23:05:44.936Z,96066.91
2022-10-10T23:08:31.123Z,96062.38
2022-10-10T23:11:17.114Z,96064.03
2022-10-10T23:14:03.867Z,96049.69
2022-10-10T23:16:49.832Z,96051.56
2022-10-10T23:19:35.949Z,96056.53
2022-10-10T23:22:21.889Z,96055.91
2022-10-10T23:25:07.927Z,96048.22
2022-10-10T23:27:54.233Z,96059.88
2022-10-10T23:30:41.693Z,96070.50
2022-10-10T23:33:27.918Z,96073.19
2022-10-10T23:36:15.281Z,96080.13
2022-10-10T23:39:02.918Z,96085.31
2022-10-10T23:41:50.433Z,96099.44
2022-10-10T23:44:36.475Z,96088.66
2022-10-10T23:47:23.332Z,96098.59
2022-10-10T23:50:09.601Z,96090.50
2022-10-10T23:52:55.367Z,96089.06
2022-10-10T23:55:41.518Z,96076.41
2022-10-10T23:58:28.025Z,96084.50
